Time;durP1;ratioP1;P1;durP2;ratioP2;P2;SDS_P1;SDS_P2;PMS_P1;PMS_P2;Temp;Humidity;BMP_temperature;BMP_pressure;BME280_temperature;BME280_humidity;BME280_pressure;Samples;Min_cycle;Max_cycle;Signal;HPM_P1;HPM_P2
2022/08/28 00:00:21;;;;;;;11.75;5.32;;;;;;;;;;5014170;28;20456;-80
2022/08/28 00:02:47;;;;;;;9.27;4.97;;;;;;;;;;5013369;28;20060;-80
2022/08/28 00:05:16;;;;;;;7.10;4.22;;;;;;;;;;5013021;28;20038;-80
2022/08/28 00:07:41;;;;;;;7.78;4.38;;;;;;;;;;5030507;28;20033;-80
2022/08/28 00:10:09;;;;;;;8.40;4.70;;;;;;;;;;5015451;28;20035;-80
2022/08/28 00:12:35;;;;;;;;;;;;;;;;;;5013512;28;20099;-80
2022/08/28 00:15:02;;;;;;;9.80;3.90;;;;;;;;;;5030191;28;20269;-80
2022/08/28 00:17:27;;;;;;;8.53;3.37;;;;;;;;;;5029038;28;20037;-80
2022/08/28 00:19:53;;;;;;;9.43;4.00;;;;;;;;;;5030883;28;20314;-80
2022/08/28 00:22:18;;;;;;;8.52;3.63;;;;;;;;;;5047241;28;20438;-80
2022/08/28 00:24:44;;;;;;;10.07;3.63;;;;;;;;;;5015409;28;20021;-80
2022/08/28 00:29:53;;;;;;;8.32;4.50;;;;;;;;;;5031342;28;20543;-80
2022/08/28 00:32:22;;;;;;;10.68;3.95;;;;;;;;;;5012981;28;20033;-80
2022/08/28 00:34:48;;;;;;;6.70;3.70;;;;;;;;;;5017905;28;20029;-80
2022/08/28 00:37:14;;;;;;;8.13;3.80;;;;;;;;;;5013572;28;20036;-80
2022/08/28 00:39:39;;;;;;;9.23;3.65;;;;;;;;;;5028846;28;20040;-81
2022/08/28 00:42:05;;;;;;;5.75;3.25;;;;;;;;;;5027950;28;20037;-80
2022/08/28 00:44:33;;;;;;;8.20;3.78;;;;;;;;;;5030682;28;20080;-80
2022/08/28 00:46:59;;;;;;;8.18;3.85;;;;;;;;;;5027136;28;20072;-80
2022/08/28 00:49:31;;;;;;;7.50;3.47;;;;;;;;;;5013763;28;20064;-80
2022/08/28 00:52:04;;;;;;;7.80;3.92;;;;;;;;;;5027837;28;20125;-80
2022/08/28 00:54:51;;;;;;;8.20;3.70;;;;;;;;;;4998730;28;20037;-80
2022/08/28 00:57:20;;;;;;;7.88;3.47;;;;;;;;;;5013173;28;20443;-80
2022/08/28 00:59:46;;;;;;;7.35;3.70;;;;;;;;;;5027181;28;20489;-80
2022/08/28 01:02:12;;;;;;;8.68;3.80;;;;;;;;;;5029072;28;20046;-80
2022/08/28 01:04:37;;;;;;;7.93;3.83;;;;;;;;;;5015076;28;20478;-80
2022/08/28 01:07:08;;;;;;;8.93;4.22;;;;;;;;;;5018587;28;20045;-80
2022/08/28 01:09:37;;;;;;;13.73;5.43;;;;;;;;;;5047609;28;20037;-81
2022/08/28 01:12:07;;;;;;;8.00;4.20;;;;;;;;;;5028159;28;20116;-80
2022/08/28 01:14:36;;;;;;;9.65;4.75;;;;;;;;;;5012475;28;20095;-80
2022/08/28 01:17:02;;;;;;;9.68;5.20;;;;;;;;;;5032091;28;20123;-80
2022/08/28 01:19:32;;;;;;;9.40;5.57;;;;;;;;;;5030915;28;20037;-80
2022/08/28 01:22:11;;;;;;;14.23;6.50;;;;;;;;;;5029082;28;20037;-79
2022/08/28 01:24:37;;;;;;;10.40;6.22;;;;;;;;;;5026808;28;20029;-81
2022/08/28 01:27:03;;;;;;;11.48;6.07;;;;;;;;;;5028030;28;20111;-80
2022/08/28 01:29:29;;;;;;;12.07;6.88;;;;;;;;;;5013198;28;20443;-80
2022/08/28 01:31:55;;;;;;;11.68;6.80;;;;;;;;;;5026015;28;20120;-80
2022/08/28 01:34:21;;;;;;;13.43;7.05;;;;;;;;;;5012820;28;20496;-80
2022/08/28 01:36:47;;;;;;;10.73;6.85;;;;;;;;;;5015457;28;20037;-81
2022/08/28 01:39:18;;;;;;;12.73;6.60;;;;;;;;;;5029705;28;20033;-80
2022/08/28 01:41:45;;;;;;;14.32;7.25;;;;;;;;;;5010390;28;20566;-80
2022/08/28 01:44:13;;;;;;;15.32;7.47;;;;;;;;;;5046058;28;20036;-80
2022/08/28 01:46:40;;;;;;;11.75;7.53;;;;;;;;;;5017049;28;20505;-80
2022/08/28 01:49:10;;;;;;;12.88;7.68;;;;;;;;;;5013165;28;20029;-80
2022/08/28 01:51:40;;;;;;;12.55;7.88;;;;;;;;;;5029334;28;20033;-81
2022/08/28 01:54:05;;;;;;;14.30;8.00;;;;;;;;;;5031114;28;20428;-80
2022/08/28 01:56:31;;;;;;;10.30;7.30;;;;;;;;;;5015130;28;20037;-81
2022/08/28 01:58:56;;;;;;;15.18;8.20;;;;;;;;;;5019538;28;20519;-79
2022/08/28 02:01:23;;;;;;;11.57;6.95;;;;;;;;;;5007896;28;21535;-80
2022/08/28 02:03:51;;;;;;;14.07;7.82;;;;;;;;;;5016612;28;20168;-80
2022/08/28 02:06:17;;;;;;;10.85;6.35;;;;;;;;;;5013707;28;20496;-80
2022/08/28 02:08:42;;;;;;;12.77;7.20;;;;;;;;;;5018659;28;20056;-80
2022/08/28 02:11:09;;;;;;;14.10;6.57;;;;;;;;;;5030054;28;20044;-80
2022/08/28 02:13:36;;;;;;;12.80;6.77;;;;;;;;;;5014411;28;20049;-81
2022/08/28 02:16:03;;;;;;;12.27;6.23;;;;;;;;;;5033626;28;20425;-80
2022/08/28 02:18:29;;;;;;;11.10;6.43;;;;;;;;;;5016130;28;20279;-80
2022/08/28 02:20:54;;;;;;;10.25;6.00;;;;;;;;;;5031520;28;20710;-80
2022/08/28 02:23:20;;;;;;;10.35;5.95;;;;;;;;;;5048598;28;20590;-80
2022/08/28 02:25:45;;;;;;;9.10;5.55;;;;;;;;;;5031202;28;20037;-80
2022/08/28 02:28:10;;;;;;;12.55;5.50;;;;;;;;;;5017703;28;20489;-79
2022/08/28 02:30:37;;;;;;;12.90;5.53;;;;;;;;;;5020740;28;20033;-80
2022/08/28 02:33:03;;;;;;;11.82;5.30;;;;;;;;;;5032290;28;20514;-80
2022/08/28 02:35:30;;;;;;;12.38;5.18;;;;;;;;;;5015500;28;20061;-80
2022/08/28 02:37:55;;;;;;;17.40;4.82;;;;;;;;;;5015940;28;20033;-80
2022/08/28 02:40:23;;;;;;;13.23;4.88;;;;;;;;;;5032525;28;20603;-80
2022/08/28 02:42:49;;;;;;;10.55;4.88;;;;;;;;;;5029359;28;20037;-80
2022/08/28 02:45:14;;;;;;;9.50;4.63;;;;;;;;;;5030526;28;20500;-80
2022/08/28 02:47:42;;;;;;;10.73;4.57;;;;;;;;;;5013376;28;20123;-80
2022/08/28 02:50:09;;;;;;;10.68;4.32;;;;;;;;;;5050070;28;20030;-80
2022/08/28 02:52:36;;;;;;;10.63;4.18;;;;;;;;;;5032850;28;20138;-80
2022/08/28 02:55:02;;;;;;;9.85;3.78;;;;;;;;;;5031191;28;20048;-80
2022/08/28 02:57:28;;;;;;;11.13;4.28;;;;;;;;;;5024594;28;20032;-80
2022/08/28 02:59:54;;;;;;;9.50;3.97;;;;;;;;;;5018456;28;20040;-80
2022/08/28 03:02:19;;;;;;;10.23;3.78;;;;;;;;;;5016879;28;20476;-80
2022/08/28 03:04:44;;;;;;;8.20;3.47;;;;;;;;;;5031969;28;20833;-80
2022/08/28 03:07:12;;;;;;;9.65;3.75;;;;;;;;;;5015965;28;20034;-80
2022/08/28 03:09:40;;;;;;;11.23;3.60;;;;;;;;;;5031001;28;20044;-80
2022/08/28 03:12:07;;;;;;;10.95;3.60;;;;;;;;;;5013045;28;20283;-80
2022/08/28 03:14:32;;;;;;;10.40;4.00;;;;;;;;;;5018762;28;20061;-80
2022/08/28 03:17:01;;;;;;;11.48;3.35;;;;;;;;;;5032498;28;20060;-80
2022/08/28 03:19:26;;;;;;;9.52;3.42;;;;;;;;;;5019229;28;20432;-80
2022/08/28 03:21:55;;;;;;;8.35;3.25;;;;;;;;;;5045685;28;20041;-80
2022/08/28 03:24:20;;;;;;;12.82;3.60;;;;;;;;;;5031644;28;20071;-79
2022/08/28 03:26:46;;;;;;;10.15;3.53;;;;;;;;;;5031785;28;20427;-79
2022/08/28 03:29:12;;;;;;;11.57;3.47;;;;;;;;;;5014710;28;21058;-80
2022/08/28 03:31:37;;;;;;;8.93;3.03;;;;;;;;;;5030787;28;20072;-80
2022/08/28 03:34:03;;;;;;;11.80;3.63;;;;;;;;;;5030586;28;20041;-80
2022/08/28 03:36:29;;;;;;;13.18;3.47;;;;;;;;;;5007393;28;20029;-80
2022/08/28 03:38:56;;;;;;;10.40;2.80;;;;;;;;;;5029690;28;20044;-80
2022/08/28 03:41:23;;;;;;;8.68;2.92;;;;;;;;;;5024766;28;20033;-80
2022/08/28 03:43:49;;;;;;;10.85;3.13;;;;;;;;;;5032024;28;20463;-79
2022/08/28 03:46:21;;;;;;;7.50;2.92;;;;;;;;;;5016275;28;20124;-80
2022/08/28 03:48:46;;;;;;;13.93;3.65;;;;;;;;;;5027671;28;20038;-79
2022/08/28 03:51:15;;;;;;;7.90;2.65;;;;;;;;;;5012813;28;20045;-80
2022/08/28 03:53:41;;;;;;;9.57;3.00;;;;;;;;;;5025236;28;20524;-80
2022/08/28 03:56:09;;;;;;;9.05;2.88;;;;;;;;;;5015497;28;20040;-80
2022/08/28 03:58:35;;;;;;;9.52;2.47;;;;;;;;;;5013084;28;20033;-80
2022/08/28 04:01:00;;;;;;;10.15;2.78;;;;;;;;;;5017850;28;20535;-80
2022/08/28 04:03:25;;;;;;;11.40;2.60;;;;;;;;;;5014319;28;20041;-79
2022/08/28 04:05:51;;;;;;;12.43;3.03;;;;;;;;;;5027577;28;20468;-79
2022/08/28 04:08:18;;;;;;;8.63;2.40;;;;;;;;;;4999600;28;20515;-81
2022/08/28 04:10:44;;;;;;;10.02;2.78;;;;;;;;;;5010386;28;20286;-80
2022/08/28 04:13:11;;;;;;;12.32;3.17;;;;;;;;;;5013105;28;20518;-80
2022/08/28 04:15:36;;;;;;;6.22;2.97;;;;;;;;;;5032240;28;20067;-80
2022/08/28 04:18:02;;;;;;;9.60;2.42;;;;;;;;;;5017084;28;20123;-80
2022/08/28 04:20:27;;;;;;;10.18;3.10;;;;;;;;;;5016173;28;20047;-79
2022/08/28 04:22:53;;;;;;;9.60;2.80;;;;;;;;;;5033557;28;20500;-79
2022/08/28 04:25:19;;;;;;;11.48;3.03;;;;;;;;;;5015824;28;20048;-79
2022/08/28 04:27:45;;;;;;;17.67;2.70;;;;;;;;;;5031708;28;20037;-79
2022/08/28 04:30:11;;;;;;;9.32;2.50;;;;;;;;;;5017080;28;20037;-79
2022/08/28 04:32:37;;;;;;;12.10;2.80;;;;;;;;;;5028699;28;20456;-80
2022/08/28 04:35:04;;;;;;;9.15;2.53;;;;;;;;;;5011944;28;20038;-79
2022/08/28 04:37:29;;;;;;;9.95;2.92;;;;;;;;;;5015115;28;20033;-79
2022/08/28 04:39:55;;;;;;;9.77;2.55;;;;;;;;;;5018007;28;20035;-80
2022/08/28 04:42:20;;;;;;;9.77;2.95;;;;;;;;;;5012375;28;20029;-79
2022/08/28 04:44:46;;;;;;;11.15;2.67;;;;;;;;;;5045326;28;20489;-79
2022/08/28 04:47:11;;;;;;;9.45;2.53;;;;;;;;;;5029352;28;20036;-81
2022/08/28 04:49:37;;;;;;;10.25;2.80;;;;;;;;;;5014683;28;20493;-81
2022/08/28 04:52:02;;;;;;;11.80;2.40;;;;;;;;;;5013841;28;20416;-79
2022/08/28 04:54:32;;;;;;;9.43;2.60;;;;;;;;;;5014763;28;20121;-81
2022/08/28 04:56:57;;;;;;;9.82;2.22;;;;;;;;;;5013559;28;20041;-81
2022/08/28 04:59:22;;;;;;;8.32;2.60;;;;;;;;;;5012055;28;20461;-79
2022/08/28 05:01:51;;;;;;;10.52;2.63;;;;;;;;;;5043029;28;20030;-80
2022/08/28 05:04:18;;;;;;;8.88;2.30;;;;;;;;;;5017897;28;20487;-78
2022/08/28 05:06:45;;;;;;;9.60;2.40;;;;;;;;;;5027488;28;20075;-79
2022/08/28 05:09:11;;;;;;;11.63;2.72;;;;;;;;;;5015862;28;20467;-80
2022/08/28 05:11:36;;;;;;;9.82;2.38;;;;;;;;;;5045163;28;20039;-80
2022/08/28 05:14:04;;;;;;;10.23;3.03;;;;;;;;;;4999712;28;20389;-79
2022/08/28 05:16:29;;;;;;;10.80;2.58;;;;;;;;;;5014887;28;20561;-80
2022/08/28 05:18:59;;;;;;;11.00;2.30;;;;;;;;;;5025647;28;20052;-80
2022/08/28 05:21:24;;;;;;;8.75;2.70;;;;;;;;;;5028154;28;20119;-79
2022/08/28 05:23:56;;;;;;;13.10;2.88;;;;;;;;;;5001172;28;20056;-79
2022/08/28 05:26:22;;;;;;;9.95;2.67;;;;;;;;;;5028147;28;20542;-78
2022/08/28 05:28:47;;;;;;;11.63;2.70;;;;;;;;;;5024400;28;20053;-79
2022/08/28 05:31:16;;;;;;;10.38;2.38;;;;;;;;;;5015071;28;20060;-79
2022/08/28 05:33:43;;;;;;;11.73;2.70;;;;;;;;;;5026989;28;20061;-79
2022/08/28 05:36:09;;;;;;;13.98;3.25;;;;;;;;;;5015249;28;20038;-79
2022/08/28 05:38:34;;;;;;;7.85;2.63;;;;;;;;;;5011187;28;20548;-79
2022/08/28 05:41:00;;;;;;;11.90;3.42;;;;;;;;;;5050504;28;20036;-79
2022/08/28 05:43:25;;;;;;;8.73;2.90;;;;;;;;;;5035971;28;20089;-79
2022/08/28 05:45:58;;;;;;;8.00;2.58;;;;;;;;;;5016747;28;20039;-79
2022/08/28 05:48:28;;;;;;;9.63;2.75;;;;;;;;;;5032211;28;20045;-77
2022/08/28 05:50:57;;;;;;;13.23;2.92;;;;;;;;;;5017398;28;20606;-78
2022/08/28 05:53:24;;;;;;;9.95;3.05;;;;;;;;;;5019773;28;20088;-79
2022/08/28 05:55:50;;;;;;;12.85;2.90;;;;;;;;;;5032957;28;20033;-78
2022/08/28 05:58:31;;;;;;;13.18;3.55;;;;;;;;;;5015145;28;20038;-78
2022/08/28 06:01:11;;;;;;;10.55;3.60;;;;;;;;;;5045322;28;20048;-76
2022/08/28 06:03:38;;;;;;;13.93;4.60;;;;;;;;;;5006094;28;20037;-77
2022/08/28 06:06:04;;;;;;;9.82;3.35;;;;;;;;;;5020031;28;20035;-77
2022/08/28 06:08:30;;;;;;;9.77;3.35;;;;;;;;;;5034837;28;20470;-76
2022/08/28 06:10:56;;;;;;;13.20;3.28;;;;;;;;;;5031991;28;20045;-76
2022/08/28 06:13:22;;;;;;;11.85;3.30;;;;;;;;;;5029076;28;20033;-77
2022/08/28 06:15:47;;;;;;;10.52;3.95;;;;;;;;;;5019074;28;20450;-76
2022/08/28 06:18:14;;;;;;;11.70;3.17;;;;;;;;;;5032041;28;20037;-76
2022/08/28 06:20:44;;;;;;;10.85;3.10;;;;;;;;;;5010711;28;20129;-76
2022/08/28 06:23:11;;;;;;;13.00;3.53;;;;;;;;;;5032851;28;20471;-77
2022/08/28 06:25:38;;;;;;;11.98;3.60;;;;;;;;;;5026839;28;20032;-79
2022/08/28 06:28:04;;;;;;;12.20;3.90;;;;;;;;;;5017341;28;20060;-78
2022/08/28 06:30:29;;;;;;;13.00;3.65;;;;;;;;;;5028935;28;20051;-77
2022/08/28 06:32:55;;;;;;;11.07;3.88;;;;;;;;;;5035487;28;20396;-78
2022/08/28 06:35:20;;;;;;;12.90;3.72;;;;;;;;;;5011641;28;20037;-77
2022/08/28 06:37:46;;;;;;;13.48;3.65;;;;;;;;;;5033443;28;20033;-77
2022/08/28 06:40:12;;;;;;;10.00;3.38;;;;;;;;;;5004319;28;20043;-78
2022/08/28 06:42:37;;;;;;;9.85;3.40;;;;;;;;;;5027757;28;20037;-79
2022/08/28 06:45:03;;;;;;;14.20;3.75;;;;;;;;;;5036509;28;20052;-78
2022/08/28 06:47:28;;;;;;;13.60;3.50;;;;;;;;;;5017949;28;20029;-78
2022/08/28 06:49:54;;;;;;;12.73;3.80;;;;;;;;;;5016347;28;20037;-76
2022/08/28 06:52:19;;;;;;;12.07;3.50;;;;;;;;;;5013191;28;20157;-77
2022/08/28 06:54:45;;;;;;;10.32;3.22;;;;;;;;;;5018810;28;20059;-79
2022/08/28 06:57:12;;;;;;;10.70;3.38;;;;;;;;;;5016336;28;20049;-78
2022/08/28 06:59:37;;;;;;;;;;;;;;;;;;5016402;28;20029;-79
2022/08/28 07:02:04;;;;;;;9.67;3.90;;;;;;;;;;5028188;28;19928;-77
2022/08/28 07:04:30;;;;;;;8.27;3.30;;;;;;;;;;5021393;28;20288;-78
2022/08/28 07:06:58;;;;;;;12.75;3.53;;;;;;;;;;5017054;28;20041;-77
2022/08/28 07:09:23;;;;;;;15.13;4.22;;;;;;;;;;5030176;28;20030;-78
2022/08/28 07:11:49;;;;;;;14.45;4.57;;;;;;;;;;5030384;28;20037;-77
2022/08/28 07:14:15;;;;;;;9.85;3.50;;;;;;;;;;5033984;28;20037;-79
2022/08/28 07:16:40;;;;;;;10.57;4.20;;;;;;;;;;5047313;28;20029;-76
2022/08/28 07:19:07;;;;;;;11.70;3.65;;;;;;;;;;5034499;28;20116;-75
2022/08/28 07:21:34;;;;;;;13.48;4.20;;;;;;;;;;5017186;28;20422;-76
2022/08/28 07:24:02;;;;;;;10.00;3.60;;;;;;;;;;5014052;28;20056;-76
2022/08/28 07:26:27;;;;;;;13.85;3.97;;;;;;;;;;5011656;28;20523;-77
2022/08/28 07:28:53;;;;;;;12.10;3.58;;;;;;;;;;5016709;28;20033;-76
2022/08/28 07:31:22;;;;;;;10.82;3.42;;;;;;;;;;5019366;28;20041;-77
2022/08/28 07:33:48;;;;;;;12.23;3.67;;;;;;;;;;5012633;28;20029;-77
2022/08/28 07:36:16;;;;;;;9.75;3.13;;;;;;;;;;5016401;28;20045;-77
2022/08/28 07:38:42;;;;;;;12.27;3.20;;;;;;;;;;5019185;28;20409;-76
2022/08/28 07:41:25;;;;;;;14.18;3.75;;;;;;;;;;5013789;28;20536;-77
2022/08/28 07:46:36;;;;;;;11.15;3.58;;;;;;;;;;5031960;28;20134;-76
2022/08/28 07:49:02;;;;;;;9.15;2.92;;;;;;;;;;5016077;28;20485;-76
2022/08/28 07:51:28;;;;;;;8.32;2.80;;;;;;;;;;5029408;28;20106;-77
2022/08/28 07:53:56;;;;;;;11.07;3.30;;;;;;;;;;5017601;28;20041;-76
2022/08/28 07:56:22;;;;;;;11.20;3.45;;;;;;;;;;5029013;28;20755;-78
2022/08/28 07:58:47;;;;;;;9.90;3.40;;;;;;;;;;5027666;28;20032;-77
2022/08/28 08:01:14;;;;;;;10.65;3.15;;;;;;;;;;5045723;28;20527;-77
2022/08/28 08:03:39;;;;;;;9.77;3.03;;;;;;;;;;5012065;28;20099;-76
2022/08/28 08:06:05;;;;;;;10.85;3.22;;;;;;;;;;5011746;28;20038;-76
2022/08/28 08:08:32;;;;;;;10.45;3.05;;;;;;;;;;5014705;28;20077;-76
2022/08/28 08:11:06;;;;;;;8.57;3.05;;;;;;;;;;5027442;28;20436;-86
2022/08/28 08:13:33;;;;;;;11.57;3.15;;;;;;;;;;5041905;28;20042;-87
2022/08/28 08:16:05;;;;;;;8.93;2.90;;;;;;;;;;5018546;28;20037;-87
2022/08/28 08:18:30;;;;;;;9.35;3.03;;;;;;;;;;5017554;28;20029;-89
2022/08/28 08:20:56;;;;;;;9.45;3.00;;;;;;;;;;4997760;28;20040;-87
2022/08/28 08:23:22;;;;;;;8.32;2.72;;;;;;;;;;5018888;28;20033;-87
2022/08/28 08:25:58;;;;;;;8.80;2.63;;;;;;;;;;5029441;28;20056;-87
2022/08/28 08:28:24;;;;;;;10.20;3.60;;;;;;;;;;5045757;28;20041;-86
2022/08/28 08:30:49;;;;;;;10.75;3.00;;;;;;;;;;5012753;28;20132;-88
2022/08/28 08:33:14;;;;;;;6.72;2.53;;;;;;;;;;5018608;28;20131;-87
2022/08/28 08:35:40;;;;;;;6.57;2.50;;;;;;;;;;5013695;28;20112;-87
2022/08/28 08:38:06;;;;;;;10.85;2.80;;;;;;;;;;5013496;28;20418;-88
2022/08/28 08:40:32;;;;;;;8.85;2.80;;;;;;;;;;5015054;28;20025;-87
2022/08/28 08:42:59;;;;;;;8.48;2.70;;;;;;;;;;5017783;28;20080;-89
2022/08/28 08:45:26;;;;;;;10.88;2.80;;;;;;;;;;5010337;28;20037;-87
2022/08/28 08:47:54;;;;;;;16.15;2.78;;;;;;;;;;5006706;28;20033;-86
2022/08/28 08:50:23;;;;;;;11.57;3.28;;;;;;;;;;5032215;28;20030;-86
2022/08/28 08:53:11;;;;;;;9.15;3.00;;;;;;;;;;5020140;28;20349;-86
2022/08/28 08:55:52;;;;;;;9.93;3.00;;;;;;;;;;4992487;28;20065;-88
2022/08/28 08:58:29;;;;;;;7.93;3.10;;;;;;;;;;5013829;28;20029;-87
2022/08/28 09:00:57;;;;;;;8.40;3.05;;;;;;;;;;5030377;28;20042;-87
2022/08/28 09:03:39;;;;;;;10.02;3.65;;;;;;;;;;5011271;28;20033;-86
2022/08/28 09:06:05;;;;;;;7.22;2.47;;;;;;;;;;5013130;28;20067;-88
2022/08/28 09:08:39;;;;;;;9.25;3.03;;;;;;;;;;5019846;28;20111;-88
2022/08/28 09:11:39;;;;;;;12.95;2.90;;;;;;;;;;5043409;28;20040;-89
2022/08/28 09:14:32;;;;;;;9.10;2.65;;;;;;;;;;5010030;28;21550;-88
2022/08/28 09:16:58;;;;;;;11.50;3.53;;;;;;;;;;5033200;28;20561;-88
2022/08/28 09:19:24;;;;;;;9.88;2.90;;;;;;;;;;5024704;28;20112;-88
2022/08/28 09:21:50;;;;;;;7.38;2.85;;;;;;;;;;5028554;28;20114;-87
2022/08/28 09:24:27;;;;;;;7.93;2.80;;;;;;;;;;5008825;28;20113;-89
2022/08/28 09:27:05;;;;;;;8.00;2.70;;;;;;;;;;5014624;28;20083;-88
2022/08/28 09:29:37;;;;;;;;;;;;;;;;;;5004929;28;20099;-88
2022/08/28 09:32:15;;;;;;;9.98;2.83;;;;;;;;;;5028780;28;20386;-89
2022/08/28 09:34:58;;;;;;;8.93;2.95;;;;;;;;;;5029761;28;20128;-86
2022/08/28 09:37:25;;;;;;;8.35;3.28;;;;;;;;;;5009332;28;20413;-87
2022/08/28 09:40:16;;;;;;;10.05;3.10;;;;;;;;;;5012339;28;20562;-88
2022/08/28 09:45:44;;;;;;;10.25;2.90;;;;;;;;;;5025743;28;20047;-89
2022/08/28 09:48:19;;;;;;;7.05;2.67;;;;;;;;;;5028531;28;20530;-89
2022/08/28 09:51:04;;;;;;;9.18;3.38;;;;;;;;;;5019774;28;20052;-92
2022/08/28 09:53:41;;;;;;;10.00;3.15;;;;;;;;;;5023744;28;20382;-91
2022/08/28 09:56:14;;;;;;;12.13;3.75;;;;;;;;;;5006609;28;20057;-91
2022/08/28 09:59:09;;;;;;;8.98;3.20;;;;;;;;;;5001754;28;20041;-91
2022/08/28 10:01:40;;;;;;;9.23;3.35;;;;;;;;;;5003130;28;20434;-90
2022/08/28 10:04:18;;;;;;;11.13;3.00;;;;;;;;;;5024936;28;20045;-91
2022/08/28 10:06:55;;;;;;;11.13;3.80;;;;;;;;;;5027456;28;20082;-90
2022/08/28 10:09:35;;;;;;;10.18;3.22;;;;;;;;;;5003760;28;20503;-92
2022/08/28 10:12:58;;;;;;;16.08;3.97;;;;;;;;;;5017365;28;20037;-91
2022/08/28 10:15:31;;;;;;;9.85;3.20;;;;;;;;;;4993769;28;20046;-92
2022/08/28 10:18:12;;;;;;;10.07;3.60;;;;;;;;;;5009387;28;20029;-94
2022/08/28 10:21:03;;;;;;;11.45;3.03;;;;;;;;;;5027019;28;20123;-93
2022/08/28 10:23:49;;;;;;;9.18;2.92;;;;;;;;;;5010110;28;20403;-92
2022/08/28 10:26:23;;;;;;;8.90;3.20;;;;;;;;;;5036261;28;20116;-91
2022/08/28 10:29:23;;;;;;;8.18;3.22;;;;;;;;;;5029211;28;20053;-92
2022/08/28 10:32:01;;;;;;;10.30;3.35;;;;;;;;;;5010051;28;20034;-93
2022/08/28 10:34:45;;;;;;;11.73;3.75;;;;;;;;;;5027488;28;20571;-91
2022/08/28 10:37:18;;;;;;;9.23;3.30;;;;;;;;;;5037083;28;20037;-92
2022/08/28 10:39:52;;;;;;;9.38;3.00;;;;;;;;;;5013634;28;20041;-91
2022/08/28 10:42:26;;;;;;;10.52;3.35;;;;;;;;;;5029521;28;20120;-89
2022/08/28 10:44:56;;;;;;;11.77;3.97;;;;;;;;;;5018825;28;20082;-92
2022/08/28 10:47:22;;;;;;;10.65;3.17;;;;;;;;;;5034548;28;20143;-90
2022/08/28 10:49:50;;;;;;;10.57;4.15;;;;;;;;;;5015016;28;20396;-92
2022/08/28 10:52:24;;;;;;;10.35;3.90;;;;;;;;;;5046552;28;20045;-92
2022/08/28 10:54:55;;;;;;;11.60;4.18;;;;;;;;;;5016495;28;20567;-92
2022/08/28 10:57:52;;;;;;;11.27;4.10;;;;;;;;;;5031843;28;20123;-89
2022/08/28 11:00:23;;;;;;;12.95;4.38;;;;;;;;;;5021284;28;20116;-91
2022/08/28 11:02:55;;;;;;;12.00;4.03;;;;;;;;;;5033438;28;20501;-91
2022/08/28 11:05:23;;;;;;;12.95;3.80;;;;;;;;;;5030239;28;20038;-92
2022/08/28 11:07:52;;;;;;;12.93;4.35;;;;;;;;;;5032812;28;20506;-90
2022/08/28 11:10:36;;;;;;;9.57;3.85;;;;;;;;;;5019680;28;20029;-91
2022/08/28 11:13:03;;;;;;;12.18;4.10;;;;;;;;;;5030059;28;20045;-92
2022/08/28 11:15:31;;;;;;;10.30;3.65;;;;;;;;;;5028756;28;20527;-90
2022/08/28 11:18:52;;;;;;;14.15;4.85;;;;;;;;;;5031787;28;20499;-93
2022/08/28 11:21:25;;;;;;;15.68;4.78;;;;;;;;;;5025081;28;20033;-92
2022/08/28 11:23:59;;;;;;;12.93;4.72;;;;;;;;;;5034601;28;20041;-91
2022/08/28 11:26:33;;;;;;;10.32;4.45;;;;;;;;;;5018018;28;20414;-89
2022/08/28 11:28:59;;;;;;;17.30;4.85;;;;;;;;;;5032183;28;20928;-91
2022/08/28 11:31:30;;;;;;;9.93;4.53;;;;;;;;;;5013167;28;20037;-91
2022/08/28 11:33:57;;;;;;;12.35;3.88;;;;;;;;;;5018488;28;20300;-91
2022/08/28 11:36:24;;;;;;;10.60;4.10;;;;;;;;;;5015287;28;20094;-90
2022/08/28 11:38:56;;;;;;;10.93;4.55;;;;;;;;;;5030894;28;20121;-93
2022/08/28 11:41:26;;;;;;;9.95;3.70;;;;;;;;;;5032244;28;20495;-91
2022/08/28 11:44:12;;;;;;;13.93;4.68;;;;;;;;;;5015465;28;20136;-92
2022/08/28 11:46:46;;;;;;;10.20;4.25;;;;;;;;;;5026639;28;20040;-91
2022/08/28 11:49:30;;;;;;;15.82;4.50;;;;;;;;;;5019392;28;20443;-91
2022/08/28 11:52:03;;;;;;;8.00;4.18;;;;;;;;;;5027673;28;20242;-91
2022/08/28 11:54:44;;;;;;;13.60;4.72;;;;;;;;;;5029183;28;20083;-90
2022/08/28 11:57:13;;;;;;;13.52;4.55;;;;;;;;;;5030799;28;20103;-90
2022/08/28 12:00:00;;;;;;;10.20;4.50;;;;;;;;;;5031435;28;20044;-91
2022/08/28 12:02:37;;;;;;;10.50;3.83;;;;;;;;;;5027820;28;20148;-91
2022/08/28 12:05:06;;;;;;;10.90;3.85;;;;;;;;;;5030820;28;20099;-92
2022/08/28 12:07:39;;;;;;;11.63;4.55;;;;;;;;;;5024025;28;20026;-90
2022/08/28 12:10:26;;;;;;;11.50;4.10;;;;;;;;;;5034926;28;20366;-91
2022/08/28 12:13:00;;;;;;;9.82;4.13;;;;;;;;;;5023472;28;20046;-90
2022/08/28 12:15:26;;;;;;;8.63;4.22;;;;;;;;;;5045896;28;20045;-92
2022/08/28 12:17:54;;;;;;;10.18;3.60;;;;;;;;;;5032298;28;20132;-92
2022/08/28 12:20:27;;;;;;;8.65;3.85;;;;;;;;;;5030096;28;20096;-93
2022/08/28 12:22:58;;;;;;;10.02;3.67;;;;;;;;;;5014694;28;20040;-92
2022/08/28 12:25:26;;;;;;;9.00;3.38;;;;;;;;;;5022205;28;20044;-92
2022/08/28 12:27:52;;;;;;;9.68;3.55;;;;;;;;;;5027579;28;20046;-92
2022/08/28 12:30:43;;;;;;;7.45;3.50;;;;;;;;;;5006439;28;20133;-92
2022/08/28 12:33:27;;;;;;;9.10;3.67;;;;;;;;;;5012576;28;20447;-90
2022/08/28 12:36:01;;;;;;;7.25;3.20;;;;;;;;;;5001548;28;20689;-91
2022/08/28 12:38:29;;;;;;;7.25;2.97;;;;;;;;;;5024123;28;20034;-92
2022/08/28 12:40:55;;;;;;;9.10;3.03;;;;;;;;;;5019271;28;20140;-91
2022/08/28 12:43:29;;;;;;;12.27;4.03;;;;;;;;;;5017719;28;20120;-91
2022/08/28 12:45:57;;;;;;;10.55;3.53;;;;;;;;;;5012272;28;20040;-91
2022/08/28 12:48:30;;;;;;;8.02;2.95;;;;;;;;;;5030460;28;20041;-91
2022/08/28 12:50:58;;;;;;;6.57;3.20;;;;;;;;;;4995386;28;20772;-92
2022/08/28 12:53:26;;;;;;;7.07;3.00;;;;;;;;;;5008971;28;20041;-91
2022/08/28 12:55:52;;;;;;;8.82;2.90;;;;;;;;;;5032218;28;20153;-90
2022/08/28 12:58:38;;;;;;;7.63;3.50;;;;;;;;;;5007335;28;20053;-93
2022/08/28 13:01:10;;;;;;;8.63;3.17;;;;;;;;;;5021896;28;20040;-93
2022/08/28 13:04:03;;;;;;;7.72;3.08;;;;;;;;;;5027031;28;20152;-91
2022/08/28 13:06:34;;;;;;;6.68;2.90;;;;;;;;;;4997263;28;20141;-92
2022/08/28 13:09:03;;;;;;;8.82;3.45;;;;;;;;;;5015615;28;20733;-91
2022/08/28 13:11:35;;;;;;;9.13;3.88;;;;;;;;;;5007174;28;20033;-91
2022/08/28 13:14:03;;;;;;;8.48;3.25;;;;;;;;;;5027375;28;20072;-92
2022/08/28 13:16:43;;;;;;;7.78;2.90;;;;;;;;;;4994174;28;20065;-94
2022/08/28 13:19:27;;;;;;;10.60;3.08;;;;;;;;;;5008086;28;20060;-91
2022/08/28 13:22:00;;;;;;;8.02;3.00;;;;;;;;;;4991743;28;20554;-93
2022/08/28 13:24:48;;;;;;;8.70;3.63;;;;;;;;;;5010602;28;20410;-92
2022/08/28 13:27:14;;;;;;;9.18;3.30;;;;;;;;;;5005846;28;20037;-91
2022/08/28 13:30:09;;;;;;;9.65;3.00;;;;;;;;;;5011776;28;20032;-92
2022/08/28 13:32:37;;;;;;;9.80;2.80;;;;;;;;;;5015891;28;20041;-93
2022/08/28 13:35:15;;;;;;;8.98;3.40;;;;;;;;;;5030088;28;20541;-93
2022/08/28 13:37:45;;;;;;;;;;;;;;;;;;4996410;28;20033;-93
2022/08/28 13:40:12;;;;;;;6.43;2.30;;;;;;;;;;4990800;28;19920;-92
2022/08/28 13:42:38;;;;;;;8.98;2.72;;;;;;;;;;5026789;28;20033;-92
2022/08/28 13:45:10;;;;;;;6.93;2.78;;;;;;;;;;5028552;28;20512;-94
2022/08/28 13:47:36;;;;;;;6.22;2.47;;;;;;;;;;5011571;28;20443;-93
2022/08/28 13:50:01;;;;;;;6.95;2.95;;;;;;;;;;5016030;28;20107;-92
2022/08/28 13:52:27;;;;;;;6.15;2.78;;;;;;;;;;5022172;28;20041;-92
2022/08/28 13:54:55;;;;;;;9.50;4.82;;;;;;;;;;5014080;28;20069;-90
2022/08/28 13:57:23;;;;;;;6.50;2.92;;;;;;;;;;4987471;28;20033;-91
2022/08/28 13:59:53;;;;;;;8.20;2.70;;;;;;;;;;4958952;28;20029;-93
2022/08/28 14:05:06;;;;;;;7.70;2.60;;;;;;;;;;5017146;28;20260;-89
2022/08/28 14:07:32;;;;;;;8.18;2.63;;;;;;;;;;4990062;28;20033;-92
2022/08/28 14:09:58;;;;;;;11.55;2.55;;;;;;;;;;5012812;28;20092;-90
2022/08/28 14:12:25;;;;;;;7.97;2.45;;;;;;;;;;5001018;28;20042;-91
2022/08/28 14:14:51;;;;;;;7.55;2.97;;;;;;;;;;5019506;28;20160;-93
2022/08/28 14:17:17;;;;;;;7.57;2.28;;;;;;;;;;5005369;28;20485;-92
2022/08/28 14:20:18;;;;;;;6.35;2.67;;;;;;;;;;4985723;28;20061;-94
2022/08/28 14:22:50;;;;;;;9.88;2.75;;;;;;;;;;5003254;28;20123;-93
2022/08/28 14:25:18;;;;;;;6.80;2.55;;;;;;;;;;5011393;28;20033;-92
2022/08/28 14:27:47;;;;;;;6.90;2.38;;;;;;;;;;5012803;28;20045;-92
2022/08/28 14:30:13;;;;;;;6.40;2.40;;;;;;;;;;5041546;28;20090;-92
2022/08/28 14:32:42;;;;;;;5.72;2.35;;;;;;;;;;5004212;28;20029;-93
2022/08/28 14:35:08;;;;;;;6.22;2.50;;;;;;;;;;5024245;28;20458;-94
2022/08/28 14:37:37;;;;;;;7.80;2.95;;;;;;;;;;5008435;28;20043;-92
2022/08/28 14:40:03;;;;;;;7.10;2.78;;;;;;;;;;5012385;28;20042;-92
2022/08/28 14:42:28;;;;;;;6.45;2.47;;;;;;;;;;5006008;28;20690;-93
2022/08/28 14:45:06;;;;;;;6.30;2.30;;;;;;;;;;5018269;28;20057;-91
2022/08/28 14:47:34;;;;;;;6.78;2.50;;;;;;;;;;4990655;28;20582;-91
2022/08/28 14:50:13;;;;;;;7.38;2.50;;;;;;;;;;5001111;28;20033;-92
2022/08/28 14:52:39;;;;;;;9.07;2.80;;;;;;;;;;5015880;28;20103;-91
2022/08/28 14:55:05;;;;;;;8.18;2.40;;;;;;;;;;5012829;28;20030;-92
2022/08/28 14:57:31;;;;;;;7.43;2.50;;;;;;;;;;5014016;28;20029;-90
2022/08/28 14:59:56;;;;;;;12.20;2.95;;;;;;;;;;5024031;28;20033;-90
2022/08/28 15:02:22;;;;;;;17.30;2.67;;;;;;;;;;5024541;28;20051;-91
2022/08/28 15:04:47;;;;;;;7.60;2.40;;;;;;;;;;5015301;28;20120;-91